JAL229 RJTT-RJBB
Flight info
| Callsign | JAL229 |
|---|---|
| Flight time | 0h 52m |
| Altitude | 30000 |
| Route | LAXAS Y56 TOHME Y54 KOHWA Y544 DUBKA |
| Aircraft | B738/M-SDE2E3FGHIRWXY/LB1 |
Departure
| Time | 2026-05-06 13:33 |
|---|---|
| Airport | Tokyo Haneda International Airport (RJTT) |
Arrival
| Time | 2026-05-06 14:25 |
|---|---|
| Airport | Kansai International Airport (RJBB) |
| Time | Latitude | Longitude | Altitude | Speed | Heading |
|---|---|---|---|---|---|
| 2026-05-06 13:14 | 35.54788 | 139.78276 | 23 ft | 0 kts | 54° |
| 2026-05-06 13:22 | 35.54786 | 139.78273 | 23 ft | 3 kts | 54° |
| 2026-05-06 13:22 | 35.54765 | 139.78237 | 26 ft | 4 kts | 54° |
| 2026-05-06 13:23 | 35.54755 | 139.78220 | 24 ft | 4 kts | 58° |
| 2026-05-06 13:23 | 35.54748 | 139.78192 | 26 ft | 4 kts | 105° |
| 2026-05-06 13:23 | 35.54761 | 139.78168 | 28 ft | 3 kts | 148° |
| 2026-05-06 13:23 | 35.54764 | 139.78165 | 28 ft | 1 kts | 149° |
| 2026-05-06 13:26 | 35.54758 | 139.78170 | 24 ft | 5 kts | 150° |
| 2026-05-06 13:26 | 35.54687 | 139.78219 | 26 ft | 18 kts | 150° |
| 2026-05-06 13:26 | 35.54529 | 139.78207 | 20 ft | 29 kts | 172° |
| 2026-05-06 13:26 | 35.54323 | 139.78350 | 22 ft | 39 kts | 150° |
| 2026-05-06 13:27 | 35.54082 | 139.78523 | 20 ft | 39 kts | 150° |
| 2026-05-06 13:27 | 35.53854 | 139.78683 | 21 ft | 36 kts | 150° |
| 2026-05-06 13:27 | 35.53659 | 139.78857 | 18 ft | 34 kts | 139° |
| 2026-05-06 13:27 | 35.53487 | 139.79036 | 19 ft | 31 kts | 140° |
| 2026-05-06 13:28 | 35.53372 | 139.79233 | 19 ft | 29 kts | 90° |
| 2026-05-06 13:28 | 35.53462 | 139.79443 | 19 ft | 27 kts | 59° |
| 2026-05-06 13:28 | 35.53554 | 139.79637 | 20 ft | 26 kts | 60° |
| 2026-05-06 13:28 | 35.53646 | 139.79834 | 21 ft | 26 kts | 60° |
| 2026-05-06 13:29 | 35.53681 | 139.80039 | 20 ft | 27 kts | 139° |
| 2026-05-06 13:29 | 35.53514 | 139.80161 | 28 ft | 30 kts | 150° |
| 2026-05-06 13:29 | 35.53318 | 139.80300 | 37 ft | 35 kts | 150° |
| 2026-05-06 13:29 | 35.53100 | 139.80456 | 43 ft | 38 kts | 150° |
| 2026-05-06 13:30 | 35.52911 | 139.80472 | 48 ft | 28 kts | 220° |
| 2026-05-06 13:30 | 35.52774 | 139.80317 | 49 ft | 26 kts | 221° |
| 2026-05-06 13:30 | 35.52662 | 139.80190 | 49 ft | 15 kts | 223° |
| 2026-05-06 13:30 | 35.52571 | 139.80151 | 50 ft | 15 kts | 152° |
| 2026-05-06 13:31 | 35.52497 | 139.80243 | 47 ft | 17 kts | 133° |
| 2026-05-06 13:31 | 35.52425 | 139.80346 | 49 ft | 14 kts | 105° |
| 2026-05-06 13:31 | 35.52449 | 139.80402 | 52 ft | 0 kts | 43° |
| 2026-05-06 13:32 | 35.52516 | 139.80477 | 50 ft | 44 kts | 41° |
| 2026-05-06 13:32 | 35.52942 | 139.80955 | 48 ft | 119 kts | 43° |
| 2026-05-06 13:32 | 35.53696 | 139.81794 | 216 ft | 160 kts | 43° |
| 2026-05-06 13:33 | 35.54556 | 139.82732 | 847 ft | 175 kts | 44° |
| 2026-05-06 13:33 | 35.55502 | 139.83778 | 1477 ft | 189 kts | 44° |
| 2026-05-06 13:33 | 35.56340 | 139.85048 | 2059 ft | 203 kts | 71° |
| 2026-05-06 13:33 | 35.56451 | 139.86822 | 2330 ft | 220 kts | 106° |
| 2026-05-06 13:34 | 35.55989 | 139.88703 | 2625 ft | 238 kts | 113° |
| 2026-05-06 13:34 | 35.55418 | 139.90675 | 2992 ft | 257 kts | 113° |
| 2026-05-06 13:34 | 35.54725 | 139.92762 | 3540 ft | 267 kts | 126° |
| 2026-05-06 13:34 | 35.53426 | 139.94319 | 4396 ft | 260 kts | 155° |
| 2026-05-06 13:35 | 35.51741 | 139.94923 | 5225 ft | 256 kts | 181° |
| 2026-05-06 13:35 | 35.49977 | 139.94730 | 6059 ft | 256 kts | 193° |
| 2026-05-06 13:35 | 35.48218 | 139.94305 | 6859 ft | 259 kts | 195° |
| 2026-05-06 13:35 | 35.46454 | 139.93815 | 7649 ft | 260 kts | 202° |
| 2026-05-06 13:36 | 35.44891 | 139.92730 | 8428 ft | 259 kts | 223° |
| 2026-05-06 13:36 | 35.43622 | 139.91166 | 9254 ft | 260 kts | 229° |
| 2026-05-06 13:36 | 35.42398 | 139.89515 | 10054 ft | 263 kts | 229° |
| 2026-05-06 13:36 | 35.41145 | 139.87811 | 10535 ft | 277 kts | 229° |
| 2026-05-06 13:37 | 35.39821 | 139.86021 | 11055 ft | 287 kts | 229° |
| 2026-05-06 13:37 | 35.38461 | 139.84195 | 11741 ft | 292 kts | 229° |
| 2026-05-06 13:37 | 35.37082 | 139.82353 | 12478 ft | 295 kts | 229° |
| 2026-05-06 13:37 | 35.35684 | 139.80492 | 13197 ft | 299 kts | 229° |
| 2026-05-06 13:38 | 35.34267 | 139.78609 | 13923 ft | 302 kts | 229° |
| 2026-05-06 13:38 | 35.32832 | 139.76707 | 14626 ft | 303 kts | 229° |
| 2026-05-06 13:38 | 35.31413 | 139.74831 | 15378 ft | 302 kts | 229° |
| 2026-05-06 13:38 | 35.29886 | 139.73055 | 16144 ft | 304 kts | 225° |
| 2026-05-06 13:39 | 35.28271 | 139.71370 | 16832 ft | 306 kts | 224° |
| 2026-05-06 13:39 | 35.26634 | 139.69700 | 17533 ft | 307 kts | 224° |
| 2026-05-06 13:39 | 35.24991 | 139.68023 | 18272 ft | 307 kts | 225° |
| 2026-05-06 13:39 | 35.23352 | 139.66338 | 18886 ft | 308 kts | 225° |
| 2026-05-06 13:40 | 35.21712 | 139.64643 | 19508 ft | 309 kts | 225° |
| 2026-05-06 13:40 | 35.20073 | 139.62942 | 20136 ft | 309 kts | 225° |
| 2026-05-06 13:40 | 35.18446 | 139.61251 | 20746 ft | 310 kts | 224° |
| 2026-05-06 13:40 | 35.16799 | 139.59537 | 21313 ft | 311 kts | 224° |
| 2026-05-06 13:41 | 35.15148 | 139.57817 | 21890 ft | 313 kts | 224° |
| 2026-05-06 13:41 | 35.13486 | 139.56087 | 22466 ft | 314 kts | 224° |
| 2026-05-06 13:41 | 35.11819 | 139.54354 | 23029 ft | 315 kts | 223° |
| 2026-05-06 13:41 | 35.10142 | 139.52611 | 23577 ft | 317 kts | 223° |
| 2026-05-06 13:42 | 35.08557 | 139.50750 | 24027 ft | 317 kts | 233° |
| 2026-05-06 13:42 | 35.07379 | 139.48466 | 24464 ft | 318 kts | 244° |
| 2026-05-06 13:42 | 35.06675 | 139.45927 | 24898 ft | 321 kts | 253° |
| 2026-05-06 13:42 | 35.06207 | 139.43250 | 25341 ft | 324 kts | 255° |
| 2026-05-06 13:43 | 35.05782 | 139.40532 | 25768 ft | 325 kts | 256° |
| 2026-05-06 13:43 | 35.05357 | 139.37816 | 26191 ft | 327 kts | 256° |
| 2026-05-06 13:43 | 35.04920 | 139.35088 | 26619 ft | 328 kts | 255° |
| 2026-05-06 13:43 | 35.04469 | 139.32348 | 27036 ft | 329 kts | 255° |
| 2026-05-06 13:44 | 35.04011 | 139.29601 | 27443 ft | 331 kts | 255° |
| 2026-05-06 13:44 | 35.03546 | 139.26845 | 27850 ft | 332 kts | 255° |
| 2026-05-06 13:44 | 35.03079 | 139.24082 | 28241 ft | 334 kts | 255° |
| 2026-05-06 13:44 | 35.02620 | 139.21332 | 28635 ft | 335 kts | 256° |
| 2026-05-06 13:45 | 35.02156 | 139.18538 | 29029 ft | 337 kts | 256° |
| 2026-05-06 13:45 | 35.01223 | 139.12915 | 29779 ft | 340 kts | 256° |
| 2026-05-06 13:45 | 35.00752 | 139.10084 | 30112 ft | 341 kts | 256° |
| 2026-05-06 13:46 | 34.99785 | 139.04292 | 30144 ft | 355 kts | 256° |
| 2026-05-06 13:46 | 34.98813 | 138.98263 | 30150 ft | 369 kts | 259° |
| 2026-05-06 13:47 | 34.98414 | 138.91932 | 30150 ft | 382 kts | 263° |
| 2026-05-06 13:47 | 34.98094 | 138.85377 | 30155 ft | 391 kts | 263° |
| 2026-05-06 13:48 | 34.97753 | 138.78681 | 30148 ft | 400 kts | 263° |
| 2026-05-06 13:48 | 34.97390 | 138.71841 | 30143 ft | 407 kts | 263° |
| 2026-05-06 13:49 | 34.97017 | 138.64923 | 30141 ft | 409 kts | 263° |
| 2026-05-06 13:49 | 34.96637 | 138.57984 | 30146 ft | 410 kts | 263° |
| 2026-05-06 13:50 | 34.96255 | 138.51073 | 30138 ft | 410 kts | 262° |
| 2026-05-06 13:50 | 34.95867 | 138.44131 | 30140 ft | 410 kts | 262° |
| 2026-05-06 13:51 | 34.95474 | 138.37188 | 30137 ft | 410 kts | 262° |
| 2026-05-06 13:51 | 34.95080 | 138.30246 | 30129 ft | 410 kts | 263° |
| 2026-05-06 13:52 | 34.94683 | 138.23355 | 30131 ft | 409 kts | 262° |
| 2026-05-06 13:52 | 34.94279 | 138.16434 | 30134 ft | 408 kts | 263° |
| 2026-05-06 13:53 | 34.93881 | 138.09532 | 30143 ft | 408 kts | 262° |
| 2026-05-06 13:53 | 34.93470 | 138.02639 | 30122 ft | 407 kts | 263° |
| 2026-05-06 13:54 | 34.93062 | 137.95743 | 30126 ft | 407 kts | 262° |
| 2026-05-06 13:54 | 34.92652 | 137.88911 | 30153 ft | 407 kts | 262° |
| 2026-05-06 13:55 | 34.92235 | 137.82003 | 30127 ft | 408 kts | 263° |
| 2026-05-06 13:55 | 34.91836 | 137.75090 | 30147 ft | 409 kts | 263° |
| 2026-05-06 13:56 | 34.91289 | 137.68206 | 30131 ft | 407 kts | 257° |
| 2026-05-06 13:56 | 34.89634 | 137.61633 | 30156 ft | 406 kts | 249° |
| 2026-05-06 13:57 | 34.87663 | 137.55225 | 30136 ft | 406 kts | 249° |
| 2026-05-06 13:57 | 34.85708 | 137.48756 | 30129 ft | 407 kts | 249° |
| 2026-05-06 13:58 | 34.83803 | 137.42258 | 30134 ft | 407 kts | 250° |
| 2026-05-06 13:58 | 34.81960 | 137.35738 | 30130 ft | 408 kts | 250° |
| 2026-05-06 13:59 | 34.80108 | 137.29212 | 30131 ft | 408 kts | 250° |
| 2026-05-06 13:59 | 34.78252 | 137.22723 | 30127 ft | 408 kts | 250° |
| 2026-05-06 14:00 | 34.76652 | 137.17146 | 30125 ft | 408 kts | 250° |
| 2026-05-06 14:00 | 34.74776 | 137.10622 | 30138 ft | 408 kts | 250° |
| 2026-05-06 14:01 | 34.72897 | 137.04099 | 30127 ft | 408 kts | 250° |
| 2026-05-06 14:01 | 34.71024 | 136.97617 | 30128 ft | 408 kts | 250° |
| 2026-05-06 14:02 | 34.68658 | 136.91354 | 30145 ft | 408 kts | 243° |
| 2026-05-06 14:02 | 34.66029 | 136.85235 | 30135 ft | 408 kts | 243° |
| 2026-05-06 14:03 | 34.63425 | 136.79141 | 30130 ft | 409 kts | 243° |
| 2026-05-06 14:03 | 34.60809 | 136.73004 | 30115 ft | 408 kts | 243° |
| 2026-05-06 14:04 | 34.58220 | 136.66936 | 30138 ft | 403 kts | 243° |
| 2026-05-06 14:04 | 34.55629 | 136.60871 | 29597 ft | 409 kts | 243° |
| 2026-05-06 14:05 | 34.54324 | 136.57820 | 28882 ft | 406 kts | 243° |
| 2026-05-06 14:05 | 34.53019 | 136.54774 | 28039 ft | 406 kts | 243° |
| 2026-05-06 14:05 | 34.51711 | 136.51724 | 27113 ft | 408 kts | 243° |
| 2026-05-06 14:05 | 34.50410 | 136.48692 | 26211 ft | 411 kts | 243° |
| 2026-05-06 14:06 | 34.49089 | 136.45616 | 25517 ft | 409 kts | 243° |
| 2026-05-06 14:06 | 34.47776 | 136.42560 | 24813 ft | 409 kts | 243° |
| 2026-05-06 14:06 | 34.46463 | 136.39508 | 24138 ft | 408 kts | 243° |
| 2026-05-06 14:06 | 34.45151 | 136.36460 | 23401 ft | 410 kts | 243° |
| 2026-05-06 14:07 | 34.43816 | 136.33360 | 22646 ft | 420 kts | 243° |
| 2026-05-06 14:07 | 34.42456 | 136.30207 | 21933 ft | 422 kts | 243° |
| 2026-05-06 14:07 | 34.41100 | 136.27067 | 21221 ft | 419 kts | 243° |
| 2026-05-06 14:07 | 34.39753 | 136.23949 | 20521 ft | 416 kts | 243° |
| 2026-05-06 14:08 | 34.38413 | 136.20852 | 19806 ft | 414 kts | 243° |
| 2026-05-06 14:08 | 34.37077 | 136.17766 | 19141 ft | 411 kts | 243° |
| 2026-05-06 14:08 | 34.35785 | 136.14733 | 18498 ft | 409 kts | 245° |
| 2026-05-06 14:08 | 34.34767 | 136.11538 | 17976 ft | 402 kts | 254° |
| 2026-05-06 14:09 | 34.34139 | 136.08284 | 17599 ft | 394 kts | 258° |
| 2026-05-06 14:09 | 34.33573 | 136.04992 | 17236 ft | 405 kts | 258° |
| 2026-05-06 14:09 | 34.33189 | 136.02761 | 16974 ft | 408 kts | 258° |
| 2026-05-06 14:09 | 34.32601 | 135.99394 | 16608 ft | 408 kts | 258° |
| 2026-05-06 14:10 | 34.32008 | 135.96050 | 16237 ft | 404 kts | 257° |
| 2026-05-06 14:10 | 34.31219 | 135.91670 | 15752 ft | 401 kts | 257° |
| 2026-05-06 14:10 | 34.30816 | 135.89442 | 15516 ft | 399 kts | 257° |
| 2026-05-06 14:10 | 34.30229 | 135.86208 | 15170 ft | 398 kts | 257° |
| 2026-05-06 14:11 | 34.29636 | 135.82946 | 14810 ft | 397 kts | 257° |
| 2026-05-06 14:11 | 34.29034 | 135.79641 | 14460 ft | 397 kts | 257° |
| 2026-05-06 14:11 | 34.28446 | 135.76428 | 14103 ft | 396 kts | 257° |
| 2026-05-06 14:11 | 34.27851 | 135.73175 | 13720 ft | 396 kts | 257° |
| 2026-05-06 14:12 | 34.27257 | 135.69934 | 13334 ft | 394 kts | 257° |
| 2026-05-06 14:12 | 34.26664 | 135.66705 | 12877 ft | 393 kts | 257° |
| 2026-05-06 14:12 | 34.26079 | 135.63516 | 12485 ft | 383 kts | 257° |
| 2026-05-06 14:12 | 34.25507 | 135.60407 | 12153 ft | 373 kts | 257° |
| 2026-05-06 14:13 | 34.24950 | 135.57385 | 11798 ft | 364 kts | 257° |
| 2026-05-06 14:13 | 34.24406 | 135.54433 | 11474 ft | 356 kts | 257° |
| 2026-05-06 14:13 | 34.23873 | 135.51551 | 11154 ft | 344 kts | 257° |
| 2026-05-06 14:13 | 34.23364 | 135.48796 | 10834 ft | 328 kts | 257° |
| 2026-05-06 14:14 | 34.22876 | 135.46159 | 10544 ft | 315 kts | 257° |
| 2026-05-06 14:14 | 34.22407 | 135.43631 | 10270 ft | 303 kts | 257° |
| 2026-05-06 14:14 | 34.21954 | 135.41195 | 10002 ft | 292 kts | 257° |
| 2026-05-06 14:14 | 34.21523 | 135.38868 | 9901 ft | 275 kts | 257° |
| 2026-05-06 14:15 | 34.21104 | 135.36612 | 9443 ft | 273 kts | 257° |
| 2026-05-06 14:15 | 34.20696 | 135.34410 | 9145 ft | 266 kts | 257° |
| 2026-05-06 14:15 | 34.20291 | 135.32233 | 8848 ft | 264 kts | 257° |
| 2026-05-06 14:15 | 34.19894 | 135.30095 | 8579 ft | 264 kts | 257° |
| 2026-05-06 14:16 | 34.19492 | 135.27934 | 8297 ft | 263 kts | 257° |
| 2026-05-06 14:16 | 34.19090 | 135.25773 | 8022 ft | 263 kts | 257° |
| 2026-05-06 14:16 | 34.18687 | 135.23611 | 7752 ft | 264 kts | 257° |
| 2026-05-06 14:16 | 34.18283 | 135.21443 | 7461 ft | 264 kts | 257° |
| 2026-05-06 14:17 | 34.17883 | 135.19300 | 7207 ft | 264 kts | 257° |
| 2026-05-06 14:17 | 34.17476 | 135.17128 | 6931 ft | 264 kts | 257° |
| 2026-05-06 14:17 | 34.17072 | 135.14960 | 6658 ft | 264 kts | 258° |
| 2026-05-06 14:17 | 34.17093 | 135.12759 | 6341 ft | 264 kts | 285° |
| 2026-05-06 14:18 | 34.17926 | 135.10833 | 6069 ft | 257 kts | 309° |
| 2026-05-06 14:18 | 34.19212 | 135.09373 | 5813 ft | 250 kts | 319° |
| 2026-05-06 14:18 | 34.20560 | 135.08090 | 5539 ft | 244 kts | 321° |
| 2026-05-06 14:18 | 34.21878 | 135.06840 | 5278 ft | 238 kts | 320° |
| 2026-05-06 14:19 | 34.23157 | 135.05611 | 5020 ft | 232 kts | 320° |
| 2026-05-06 14:19 | 34.24395 | 135.04411 | 4784 ft | 224 kts | 320° |
| 2026-05-06 14:19 | 34.25585 | 135.03272 | 4568 ft | 212 kts | 325° |
| 2026-05-06 14:19 | 34.26952 | 135.02799 | 4252 ft | 205 kts | 8° |
| 2026-05-06 14:20 | 34.28146 | 135.03546 | 4084 ft | 192 kts | 43° |
| 2026-05-06 14:20 | 34.29114 | 135.04637 | 3817 ft | 193 kts | 44° |
| 2026-05-06 14:20 | 34.30081 | 135.05747 | 3553 ft | 190 kts | 47° |
| 2026-05-06 14:20 | 34.30955 | 135.06897 | 3314 ft | 181 kts | 51° |
| 2026-05-06 14:21 | 34.31754 | 135.08050 | 3078 ft | 177 kts | 53° |
| 2026-05-06 14:21 | 34.32531 | 135.09201 | 2874 ft | 174 kts | 53° |
| 2026-05-06 14:21 | 34.33281 | 135.10319 | 2622 ft | 168 kts | 53° |
| 2026-05-06 14:21 | 34.34010 | 135.11407 | 2401 ft | 165 kts | 53° |
| 2026-05-06 14:22 | 34.34735 | 135.12490 | 2180 ft | 166 kts | 53° |
| 2026-05-06 14:22 | 34.35452 | 135.13560 | 1965 ft | 165 kts | 53° |
| 2026-05-06 14:22 | 34.36170 | 135.14630 | 1731 ft | 163 kts | 52° |
| 2026-05-06 14:22 | 34.36643 | 135.15337 | 1599 ft | 163 kts | 52° |
| 2026-05-06 14:23 | 34.36830 | 135.15616 | 1525 ft | 162 kts | 52° |
| 2026-05-06 14:23 | 34.37537 | 135.16670 | 1332 ft | 162 kts | 52° |
| 2026-05-06 14:23 | 34.38150 | 135.17583 | 1129 ft | 161 kts | 52° |
| 2026-05-06 14:24 | 34.38847 | 135.18623 | 938 ft | 158 kts | 51° |
| 2026-05-06 14:24 | 34.39539 | 135.19660 | 739 ft | 157 kts | 50° |
| 2026-05-06 14:24 | 34.40226 | 135.20692 | 532 ft | 158 kts | 51° |
| 2026-05-06 14:24 | 34.40915 | 135.21712 | 304 ft | 156 kts | 50° |
| 2026-05-06 14:25 | 34.41596 | 135.22718 | 92 ft | 152 kts | 50° |
| 2026-05-06 14:25 | 34.42244 | 135.23680 | 12 ft | 131 kts | 51° |
| 2026-05-06 14:25 | 34.42687 | 135.24343 | 17 ft | 85 kts | 51° |
| 2026-05-06 14:25 | 34.43031 | 135.24801 | 14 ft | 47 kts | 31° |
| 2026-05-06 14:26 | 34.43236 | 135.24840 | 18 ft | 17 kts | 287° |
| 2026-05-06 14:26 | 34.43181 | 135.24728 | 18 ft | 16 kts | 230° |
| 2026-05-06 14:26 | 34.43112 | 135.24628 | 18 ft | 15 kts | 230° |
| 2026-05-06 14:26 | 34.43047 | 135.24531 | 18 ft | 15 kts | 231° |
| 2026-05-06 14:27 | 34.42976 | 135.24422 | 18 ft | 19 kts | 231° |
| 2026-05-06 14:27 | 34.42879 | 135.24281 | 18 ft | 24 kts | 231° |
| 2026-05-06 14:27 | 34.42772 | 135.24119 | 18 ft | 24 kts | 231° |
| 2026-05-06 14:27 | 34.42671 | 135.23966 | 18 ft | 23 kts | 237° |
| 2026-05-06 14:28 | 34.42725 | 135.23816 | 19 ft | 22 kts | 321° |
| 2026-05-06 14:28 | 34.42844 | 135.23700 | 19 ft | 21 kts | 321° |
| 2026-05-06 14:28 | 34.42959 | 135.23590 | 19 ft | 21 kts | 329° |
| 2026-05-06 14:28 | 34.43070 | 135.23666 | 18 ft | 20 kts | 51° |
| 2026-05-06 14:29 | 34.43157 | 135.23797 | 19 ft | 20 kts | 51° |
| 2026-05-06 14:29 | 34.43242 | 135.23923 | 18 ft | 19 kts | 50° |
| 2026-05-06 14:29 | 34.43279 | 135.24022 | 18 ft | 9 kts | 123° |
| 2026-05-06 14:29 | 34.43243 | 135.24060 | 18 ft | 4 kts | 140° |
| 2026-05-06 14:30 | 34.43233 | 135.24070 | 19 ft | 0 kts | 140° |